sensor_id;sensor_type;location;lat;lon;timestamp;pressure;altitude;pressure_sealevel;temperature;humidity
42105;BME280;61464;51.472;5.712;2023-02-19T00:01:35;101543.25;;;9.80;100.00
42105;BME280;61464;51.472;5.712;2023-02-19T00:04:06;101530.44;;;9.79;100.00
42105;BME280;61464;51.472;5.712;2023-02-19T00:06:34;101542.56;;;9.88;100.00
42105;BME280;61464;51.472;5.712;2023-02-19T00:09:04;101530.00;;;9.83;100.00
42105;BME280;61464;51.472;5.712;2023-02-19T00:11:34;101535.06;;;9.85;100.00
42105;BME280;61464;51.472;5.712;2023-02-19T00:14:03;101538.59;;;9.84;100.00
42105;BME280;61464;51.472;5.712;2023-02-19T00:16:55;101528.66;;;9.79;100.00
42105;BME280;61464;51.472;5.712;2023-02-19T00:19:21;101521.84;;;9.78;100.00
42105;BME280;61464;51.472;5.712;2023-02-19T00:21:51;101532.88;;;9.71;100.00
42105;BME280;61464;51.472;5.712;2023-02-19T00:24:17;101527.81;;;9.69;100.00
42105;BME280;61464;51.472;5.712;2023-02-19T00:26:47;101525.09;;;9.71;100.00
42105;BME280;61464;51.472;5.712;2023-02-19T00:29:21;101518.25;;;9.70;100.00
42105;BME280;61464;51.472;5.712;2023-02-19T00:31:49;101521.53;;;9.72;100.00
42105;BME280;61464;51.472;5.712;2023-02-19T00:34:15;101530.97;;;9.73;100.00
42105;BME280;61464;51.472;5.712;2023-02-19T00:36:41;101526.72;;;9.72;100.00
42105;BME280;61464;51.472;5.712;2023-02-19T00:39:15;101537.78;;;9.74;100.00
42105;BME280;61464;51.472;5.712;2023-02-19T00:41:46;101531.78;;;9.73;100.00
42105;BME280;61464;51.472;5.712;2023-02-19T00:44:15;101534.38;;;9.73;100.00
42105;BME280;61464;51.472;5.712;2023-02-19T00:46:47;101531.22;;;9.70;100.00
42105;BME280;61464;51.472;5.712;2023-02-19T00:49:22;101531.22;;;9.70;100.00
42105;BME280;61464;51.472;5.712;2023-02-19T00:51:51;101527.94;;;9.67;100.00
42105;BME280;61464;51.472;5.712;2023-02-19T00:54:18;101523.59;;;9.68;100.00
42105;BME280;61464;51.472;5.712;2023-02-19T00:56:45;101535.47;;;9.71;100.00
42105;BME280;61464;51.472;5.712;2023-02-19T00:59:19;101541.75;;;9.78;100.00
42105;BME280;61464;51.472;5.712;2023-02-19T01:01:45;101552.78;;;9.80;100.00
42105;BME280;61464;51.472;5.712;2023-02-19T01:04:14;101551.03;;;9.80;100.00
42105;BME280;61464;51.472;5.712;2023-02-19T01:06:41;101550.06;;;9.81;100.00
42105;BME280;61464;51.472;5.712;2023-02-19T01:09:07;101547.47;;;9.81;100.00
42105;BME280;61464;51.472;5.712;2023-02-19T01:11:34;101556.75;;;9.84;100.00
42105;BME280;61464;51.472;5.712;2023-02-19T01:14:01;101555.81;;;9.85;100.00
42105;BME280;61464;51.472;5.712;2023-02-19T01:16:44;101561.81;;;9.85;100.00
42105;BME280;61464;51.472;5.712;2023-02-19T01:19:10;101557.31;;;9.87;100.00
42105;BME280;61464;51.472;5.712;2023-02-19T01:21:39;101556.38;;;9.89;100.00
42105;BME280;61464;51.472;5.712;2023-02-19T01:24:05;101561.56;;;9.89;100.00
42105;BME280;61464;51.472;5.712;2023-02-19T01:26:32;101568.66;;;9.86;100.00
42105;BME280;61464;51.472;5.712;2023-02-19T01:29:02;101575.22;;;9.91;100.00
42105;BME280;61464;51.472;5.712;2023-02-19T01:31:29;101574.38;;;9.90;100.00
42105;BME280;61464;51.472;5.712;2023-02-19T01:34:00;101567.81;;;9.86;100.00
42105;BME280;61464;51.472;5.712;2023-02-19T01:36:32;101575.34;;;9.89;100.00
42105;BME280;61464;51.472;5.712;2023-02-19T01:39:00;101572.63;;;9.91;100.00
42105;BME280;61464;51.472;5.712;2023-02-19T01:41:31;101580.41;;;9.91;100.00
42105;BME280;61464;51.472;5.712;2023-02-19T01:46:43;101587.34;;;9.90;100.00
42105;BME280;61464;51.472;5.712;2023-02-19T01:49:29;101584.34;;;9.85;100.00
42105;BME280;61464;51.472;5.712;2023-02-19T01:52:15;101591.03;;;9.87;100.00
42105;BME280;61464;51.472;5.712;2023-02-19T01:54:51;101584.47;;;9.83;100.00
42105;BME280;61464;51.472;5.712;2023-02-19T01:57:25;101590.47;;;9.84;100.00
42105;BME280;61464;51.472;5.712;2023-02-19T02:00:02;101597.03;;;9.88;100.00
42105;BME280;61464;51.472;5.712;2023-02-19T02:02:35;101588.56;;;9.86;100.00
42105;BME280;61464;51.472;5.712;2023-02-19T02:05:01;101586.94;;;9.85;100.00
42105;BME280;61464;51.472;5.712;2023-02-19T02:07:33;101587.06;;;9.83;100.00
42105;BME280;61464;51.472;5.712;2023-02-19T02:10:18;101583.78;;;9.81;100.00
42105;BME280;61464;51.472;5.712;2023-02-19T02:12:55;101583.91;;;9.80;100.00
42105;BME280;61464;51.472;5.712;2023-02-19T02:15:27;101582.97;;;9.81;100.00
42105;BME280;61464;51.472;5.712;2023-02-19T02:18:34;101591.00;;;9.78;100.00
42105;BME280;61464;51.472;5.712;2023-02-19T02:27:50;101579.00;;;9.77;100.00
42105;BME280;61464;51.472;5.712;2023-02-19T02:31:01;101580.63;;;9.78;100.00
42105;BME280;61464;51.472;5.712;2023-02-19T02:34:02;101587.59;;;9.77;100.00
42105;BME280;61464;51.472;5.712;2023-02-19T02:36:39;101592.22;;;9.74;100.00
42105;BME280;61464;51.472;5.712;2023-02-19T02:39:11;101579.53;;;9.71;100.00
42105;BME280;61464;51.472;5.712;2023-02-19T02:41:48;101581.44;;;9.69;100.00
42105;BME280;61464;51.472;5.712;2023-02-19T02:44:35;101580.47;;;9.70;100.00
42105;BME280;61464;51.472;5.712;2023-02-19T02:47:09;101585.41;;;9.73;100.00
42105;BME280;61464;51.472;5.712;2023-02-19T02:49:55;101579.53;;;9.71;100.00
42105;BME280;61464;51.472;5.712;2023-02-19T02:52:58;101591.00;;;9.68;100.00
42105;BME280;61464;51.472;5.712;2023-02-19T02:55:50;101596.19;;;9.68;100.00
42105;BME280;61464;51.472;5.712;2023-02-19T02:58:18;101584.56;;;9.62;100.00
42105;BME280;61464;51.472;5.712;2023-02-19T03:00:55;101595.75;;;9.63;100.00
42105;BME280;61464;51.472;5.712;2023-02-19T03:03:58;101593.16;;;9.63;100.00
42105;BME280;61464;51.472;5.712;2023-02-19T03:06:36;101600.69;;;9.66;100.00
42105;BME280;61464;51.472;5.712;2023-02-19T03:09:36;101596.56;;;9.63;100.00
42105;BME280;61464;51.472;5.712;2023-02-19T03:12:10;101597.53;;;9.62;100.00
42105;BME280;61464;51.472;5.712;2023-02-19T03:15:00;101598.34;;;9.63;100.00
42105;BME280;61464;51.472;5.712;2023-02-19T03:17:51;101601.06;;;9.61;100.00
42105;BME280;61464;51.472;5.712;2023-02-19T03:20:41;101589.47;;;9.56;100.00
42105;BME280;61464;51.472;5.712;2023-02-19T03:23:27;101605.25;;;9.53;100.00
42105;BME280;61464;51.472;5.712;2023-02-19T03:26:14;101607.44;;;9.48;100.00
42105;BME280;61464;51.472;5.712;2023-02-19T03:28:42;101614.06;;;9.40;100.00
42105;BME280;61464;51.472;5.712;2023-02-19T03:31:31;101617.06;;;9.36;100.00
42105;BME280;61464;51.472;5.712;2023-02-19T03:34:16;101620.16;;;9.30;100.00
42105;BME280;61464;51.472;5.712;2023-02-19T03:37:13;101614.41;;;9.26;100.00
42105;BME280;61464;51.472;5.712;2023-02-19T03:39:41;101611.41;;;9.21;100.00
42105;BME280;61464;51.472;5.712;2023-02-19T03:48:38;101608.19;;;9.07;100.00
42105;BME280;61464;51.472;5.712;2023-02-19T03:57:07;101633.97;;;9.09;100.00
42105;BME280;61464;51.472;5.712;2023-02-19T04:00:17;101639.94;;;9.10;100.00
42105;BME280;61464;51.472;5.712;2023-02-19T04:06:06;101653.22;;;9.16;100.00
42105;BME280;61464;51.472;5.712;2023-02-19T04:08:35;101644.63;;;9.16;100.00
42105;BME280;61464;51.472;5.712;2023-02-19T04:11:02;101655.09;;;9.14;100.00
42105;BME280;61464;51.472;5.712;2023-02-19T04:13:37;101664.84;;;9.22;100.00
42105;BME280;61464;51.472;5.712;2023-02-19T04:16:19;101671.09;;;9.19;100.00
42105;BME280;61464;51.472;5.712;2023-02-19T04:18:57;101663.03;;;9.13;100.00
42105;BME280;61464;51.472;5.712;2023-02-19T04:21:24;101672.19;;;9.17;100.00
42105;BME280;61464;51.472;5.712;2023-02-19T04:23:51;101664.78;;;9.12;100.00
42105;BME280;61464;51.472;5.712;2023-02-19T04:26:19;101667.50;;;9.11;100.00
42105;BME280;61464;51.472;5.712;2023-02-19T04:28:46;101671.72;;;9.12;100.00
42105;BME280;61464;51.472;5.712;2023-02-19T04:31:18;101673.50;;;9.11;100.00
42105;BME280;61464;51.472;5.712;2023-02-19T04:33:49;101688.22;;;9.11;100.00
42105;BME280;61464;51.472;5.712;2023-02-19T04:36:21;101670.72;;;9.03;100.00
42105;BME280;61464;51.472;5.712;2023-02-19T04:38:47;101680.13;;;9.04;100.00
42105;BME280;61464;51.472;5.712;2023-02-19T04:41:12;101686.38;;;9.01;100.00
42105;BME280;61464;51.472;5.712;2023-02-19T04:43:38;101687.34;;;9.00;100.00
42105;BME280;61464;51.472;5.712;2023-02-19T04:46:07;101699.31;;;9.01;100.00
42105;BME280;61464;51.472;5.712;2023-02-19T04:48:33;101700.53;;;8.97;100.00
42105;BME280;61464;51.472;5.712;2023-02-19T04:50:59;101708.88;;;9.01;100.00
42105;BME280;61464;51.472;5.712;2023-02-19T04:53:28;101708.28;;;8.97;100.00
42105;BME280;61464;51.472;5.712;2023-02-19T04:55:54;101717.72;;;8.98;100.00
42105;BME280;61464;51.472;5.712;2023-02-19T04:58:20;101718.28;;;9.02;100.00
42105;BME280;61464;51.472;5.712;2023-02-19T05:00:52;101713.25;;;9.00;100.00
42105;BME280;61464;51.472;5.712;2023-02-19T05:03:18;101728.63;;;9.02;100.00
42105;BME280;61464;51.472;5.712;2023-02-19T05:05:53;101722.63;;;9.01;100.00
42105;BME280;61464;51.472;5.712;2023-02-19T05:08:30;101736.06;;;9.06;100.00
42105;BME280;61464;51.472;5.712;2023-02-19T05:11:05;101740.06;;;8.99;100.00
42105;BME280;61464;51.472;5.712;2023-02-19T05:13:43;101728.22;;;8.85;100.00
42105;BME280;61464;51.472;5.712;2023-02-19T05:16:13;101757.41;;;8.88;100.00
42105;BME280;61464;51.472;5.712;2023-02-19T05:18:42;101740.13;;;8.88;100.00
42105;BME280;61464;51.472;5.712;2023-02-19T05:21:11;101732.00;;;8.81;100.00
42105;BME280;61464;51.472;5.712;2023-02-19T05:23:37;101752.38;;;8.86;100.00
42105;BME280;61464;51.472;5.712;2023-02-19T05:26:18;101747.53;;;8.81;100.00
42105;BME280;61464;51.472;5.712;2023-02-19T05:28:50;101747.78;;;8.78;100.00
42105;BME280;61464;51.472;5.712;2023-02-19T05:31:21;101754.38;;;8.82;100.00
42105;BME280;61464;51.472;5.712;2023-02-19T05:33:49;101762.16;;;8.82;100.00
42105;BME280;61464;51.472;5.712;2023-02-19T05:36:20;101752.72;;;8.81;100.00
42105;BME280;61464;51.472;5.712;2023-02-19T05:38:46;101760.47;;;8.81;100.00
42105;BME280;61464;51.472;5.712;2023-02-19T05:41:26;101756.38;;;8.79;100.00
42105;BME280;61464;51.472;5.712;2023-02-19T05:43:53;101764.16;;;8.79;100.00
42105;BME280;61464;51.472;5.712;2023-02-19T05:46:23;101763.56;;;8.75;100.00
42105;BME280;61464;51.472;5.712;2023-02-19T05:48:51;101764.41;;;8.76;100.00
42105;BME280;61464;51.472;5.712;2023-02-19T05:51:24;101767.69;;;8.78;100.00
42105;BME280;61464;51.472;5.712;2023-02-19T05:53:56;101758.38;;;8.75;100.00
42105;BME280;61464;51.472;5.712;2023-02-19T05:58:57;101770.03;;;8.81;100.00
42105;BME280;61464;51.472;5.712;2023-02-19T06:01:26;101769.31;;;8.79;100.00
42105;BME280;61464;51.472;5.712;2023-02-19T06:03:52;101763.34;;;8.78;100.00
42105;BME280;61464;51.472;5.712;2023-02-19T06:06:19;101775.56;;;8.76;100.00
42105;BME280;61464;51.472;5.712;2023-02-19T06:08:49;101769.22;;;8.69;100.00
42105;BME280;61464;51.472;5.712;2023-02-19T06:11:16;101762.44;;;8.57;100.00
42105;BME280;61464;51.472;5.712;2023-02-19T06:13:43;101764.44;;;8.53;100.00
42105;BME280;61464;51.472;5.712;2023-02-19T06:16:09;101767.97;;;8.52;100.00
42105;BME280;61464;51.472;5.712;2023-02-19T06:18:36;101777.50;;;8.52;100.00
42105;BME280;61464;51.472;5.712;2023-02-19T06:21:04;101767.53;;;8.47;100.00
42105;BME280;61464;51.472;5.712;2023-02-19T06:23:31;101767.75;;;8.44;100.00
42105;BME280;61464;51.472;5.712;2023-02-19T06:26:18;101783.03;;;8.47;100.00
42105;BME280;61464;51.472;5.712;2023-02-19T06:28:46;101789.84;;;8.48;100.00
42105;BME280;61464;51.472;5.712;2023-02-19T06:31:16;101785.97;;;8.42;100.00
42105;BME280;61464;51.472;5.712;2023-02-19T06:33:43;101791.13;;;8.42;100.00
42105;BME280;61464;51.472;5.712;2023-02-19T06:36:16;101784.53;;;8.38;100.00
42105;BME280;61464;51.472;5.712;2023-02-19T06:38:43;101804.94;;;8.43;100.00
42105;BME280;61464;51.472;5.712;2023-02-19T06:41:09;101802.44;;;8.41;100.00
42105;BME280;61464;51.472;5.712;2023-02-19T06:43:37;101816.28;;;8.40;100.00
42105;BME280;61464;51.472;5.712;2023-02-19T06:46:05;101812.69;;;8.43;100.00
42105;BME280;61464;51.472;5.712;2023-02-19T06:48:32;101823.97;;;8.42;100.00
42105;BME280;61464;51.472;5.712;2023-02-19T06:50:58;101828.66;;;8.48;100.00
42105;BME280;61464;51.472;5.712;2023-02-19T06:53:24;101831.38;;;8.46;100.00
42105;BME280;61464;51.472;5.712;2023-02-19T06:55:59;101838.19;;;8.48;100.00
42105;BME280;61464;51.472;5.712;2023-02-19T06:58:26;101843.97;;;8.51;100.00
42105;BME280;61464;51.472;5.712;2023-02-19T07:00:52;101837.03;;;8.52;100.00
42105;BME280;61464;51.472;5.712;2023-02-19T07:03:19;101837.03;;;8.52;100.00
42105;BME280;61464;51.472;5.712;2023-02-19T07:05:45;101836.22;;;8.51;100.00
42105;BME280;61464;51.472;5.712;2023-02-19T07:08:11;101841.25;;;8.53;100.00
42105;BME280;61464;51.472;5.712;2023-02-19T07:10:37;101847.59;;;8.49;100.00
42105;BME280;61464;51.472;5.712;2023-02-19T07:13:05;101845.25;;;8.45;100.00
42105;BME280;61464;51.472;5.712;2023-02-19T07:15:31;101851.13;;;8.48;100.00
42105;BME280;61464;51.472;5.712;2023-02-19T07:17:58;101859.50;;;8.51;100.00
42105;BME280;61464;51.472;5.712;2023-02-19T07:20:24;101860.19;;;8.53;100.00
42105;BME280;61464;51.472;5.712;2023-02-19T07:22:50;101868.19;;;8.61;100.00
42105;BME280;61464;51.472;5.712;2023-02-19T07:25:16;101866.91;;;8.56;100.00
42105;BME280;61464;51.472;5.712;2023-02-19T07:27:41;101873.22;;;8.63;100.00
42105;BME280;61464;51.472;5.712;2023-02-19T07:30:08;101871.25;;;8.55;100.00
42105;BME280;61464;51.472;5.712;2023-02-19T07:32:34;101889.22;;;8.57;100.00
42105;BME280;61464;51.472;5.712;2023-02-19T07:35:00;101893.13;;;8.51;100.00
42105;BME280;61464;51.472;5.712;2023-02-19T07:37:25;101906.91;;;8.52;100.00
42105;BME280;61464;51.472;5.712;2023-02-19T07:39:51;101899.03;;;8.53;100.00
42105;BME280;61464;51.472;5.712;2023-02-19T07:42:17;101905.47;;;8.59;100.00
42105;BME280;61464;51.472;5.712;2023-02-19T07:44:43;101913.13;;;8.60;100.00
42105;BME280;61464;51.472;5.712;2023-02-19T07:47:09;101915.81;;;8.59;100.00
42105;BME280;61464;51.472;5.712;2023-02-19T07:49:34;101920.75;;;8.51;100.00
42105;BME280;61464;51.472;5.712;2023-02-19T07:52:03;101927.00;;;8.48;100.00
42105;BME280;61464;51.472;5.712;2023-02-19T07:54:29;101933.00;;;8.49;100.00
42105;BME280;61464;51.472;5.712;2023-02-19T07:56:55;101941.34;;;8.41;100.00
42105;BME280;61464;51.472;5.712;2023-02-19T07:59:20;101932.63;;;8.42;100.00
42105;BME280;61464;51.472;5.712;2023-02-19T08:01:46;101945.34;;;8.45;100.00
42105;BME280;61464;51.472;5.712;2023-02-19T08:04:31;101945.66;;;8.40;100.00
42105;BME280;61464;51.472;5.712;2023-02-19T08:06:56;101955.81;;;8.43;100.00
42105;BME280;61464;51.472;5.712;2023-02-19T08:09:25;101952.41;;;8.43;100.00
42105;BME280;61464;51.472;5.712;2023-02-19T08:11:51;101950.63;;;8.43;100.00
42105;BME280;61464;51.472;5.712;2023-02-19T08:14:36;101954.75;;;8.46;100.00
42105;BME280;61464;51.472;5.712;2023-02-19T08:17:16;101968.88;;;8.42;100.00
42105;BME280;61464;51.472;5.712;2023-02-19T08:19:42;101962.22;;;8.38;100.00
42105;BME280;61464;51.472;5.712;2023-02-19T08:22:08;101964.94;;;8.36;100.00
42105;BME280;61464;51.472;5.712;2023-02-19T08:24:33;101964.94;;;8.36;100.00
42105;BME280;61464;51.472;5.712;2023-02-19T08:27:00;101972.69;;;8.36;100.00
42105;BME280;61464;51.472;5.712;2023-02-19T08:29:26;101968.94;;;8.40;100.00
42105;BME280;61464;51.472;5.712;2023-02-19T08:31:52;101976.28;;;8.46;100.00
42105;BME280;61464;51.472;5.712;2023-02-19T08:34:18;101980.41;;;8.49;100.00
42105;BME280;61464;51.472;5.712;2023-02-19T08:36:44;101986.31;;;8.51;100.00
42105;BME280;61464;51.472;5.712;2023-02-19T08:39:10;101988.03;;;8.51;100.00
42105;BME280;61464;51.472;5.712;2023-02-19T08:41:35;101991.94;;;8.56;100.00
42105;BME280;61464;51.472;5.712;2023-02-19T08:44:01;101992.31;;;8.63;100.00
42105;BME280;61464;51.472;5.712;2023-02-19T08:46:27;101996.31;;;8.67;100.00
42105;BME280;61464;51.472;5.712;2023-02-19T08:48:53;101986.69;;;8.80;100.00
42105;BME280;61464;51.472;5.712;2023-02-19T08:51:19;101994.91;;;8.74;100.00
42105;BME280;61464;51.472;5.712;2023-02-19T08:53:45;101995.88;;;8.84;100.00
42105;BME280;61464;51.472;5.712;2023-02-19T08:56:14;102004.69;;;8.93;100.00
42105;BME280;61464;51.472;5.712;2023-02-19T08:58:40;101996.81;;;8.95;100.00
42105;BME280;61464;51.472;5.712;2023-02-19T09:01:15;102008.56;;;8.88;100.00
42105;BME280;61464;51.472;5.712;2023-02-19T09:03:43;102012.72;;;8.90;100.00
42105;BME280;61464;51.472;5.712;2023-02-19T09:06:18;102015.88;;;8.94;100.00
42105;BME280;61464;51.472;5.712;2023-02-19T09:08:45;102016.47;;;8.97;100.00
42105;BME280;61464;51.472;5.712;2023-02-19T09:11:11;102033.56;;;9.11;100.00
42105;BME280;61464;51.472;5.712;2023-02-19T09:13:40;102030.38;;;8.96;100.00
42105;BME280;61464;51.472;5.712;2023-02-19T09:16:06;102028.50;;;8.98;100.00
42105;BME280;61464;51.472;5.712;2023-02-19T09:18:32;102035.31;;;9.11;100.00
42105;BME280;61464;51.472;5.712;2023-02-19T09:21:17;102028.47;;;9.10;100.00
42105;BME280;61464;51.472;5.712;2023-02-19T09:23:42;102032.13;;;9.18;100.00
42105;BME280;61464;51.472;5.712;2023-02-19T09:26:12;102028.13;;;9.14;100.00
42105;BME280;61464;51.472;5.712;2023-02-19T09:28:38;102042.38;;;9.20;100.00
42105;BME280;61464;51.472;5.712;2023-02-19T09:31:12;102035.06;;;9.14;100.00
42105;BME280;61464;51.472;5.712;2023-02-19T09:33:43;102031.53;;;9.26;100.00
42105;BME280;61464;51.472;5.712;2023-02-19T09:36:09;102029.19;;;9.45;100.00
42105;BME280;61464;51.472;5.712;2023-02-19T09:38:38;102037.88;;;9.56;100.00
42105;BME280;61464;51.472;5.712;2023-02-19T09:41:21;102031.38;;;9.61;100.00
42105;BME280;61464;51.472;5.712;2023-02-19T09:43:58;102030.94;;;9.56;100.00
42105;BME280;61464;51.472;5.712;2023-02-19T09:46:50;102042.66;;;9.72;100.00
42105;BME280;61464;51.472;5.712;2023-02-19T09:49:39;102038.63;;;9.90;100.00
42105;BME280;61464;51.472;5.712;2023-02-19T09:52:37;102039.25;;;9.82;100.00
42105;BME280;61464;51.472;5.712;2023-02-19T09:55:35;102048.78;;;9.82;100.00
42105;BME280;61464;51.472;5.712;2023-02-19T09:58:29;102064.00;;;9.86;100.00
42105;BME280;61464;51.472;5.712;2023-02-19T10:01:00;102081.72;;;9.70;100.00
42105;BME280;61464;51.472;5.712;2023-02-19T10:03:36;102090.44;;;9.58;100.00
42105;BME280;61464;51.472;5.712;2023-02-19T10:06:20;102105.63;;;9.62;100.00
42105;BME280;61464;51.472;5.712;2023-02-19T10:09:08;102100.09;;;9.56;100.00
42105;BME280;61464;51.472;5.712;2023-02-19T10:11:38;102097.97;;;9.61;100.00
42105;BME280;61464;51.472;5.712;2023-02-19T10:15:00;102100.56;;;9.72;100.00
42105;BME280;61464;51.472;5.712;2023-02-19T10:17:35;102103.72;;;9.87;100.00
42105;BME280;61464;51.472;5.712;2023-02-19T10:20:20;102125.50;;;9.96;100.00
42105;BME280;61464;51.472;5.712;2023-02-19T10:22:56;102123.50;;;9.99;100.00
42105;BME280;61464;51.472;5.712;2023-02-19T10:25:23;102120.31;;;10.07;100.00
42105;BME280;61464;51.472;5.712;2023-02-19T10:27:52;102128.22;;;9.94;100.00
42105;BME280;61464;51.472;5.712;2023-02-19T10:30:24;102130.84;;;9.83;100.00
42105;BME280;61464;51.472;5.712;2023-02-19T10:33:20;102130.47;;;9.87;100.00
42105;BME280;61464;51.472;5.712;2023-02-19T10:36:05;102144.84;;;10.03;100.00
42105;BME280;61464;51.472;5.712;2023-02-19T10:38:36;102134.81;;;9.98;100.00
42105;BME280;61464;51.472;5.712;2023-02-19T10:41:20;102157.19;;;10.11;100.00
42105;BME280;61464;51.472;5.712;2023-02-19T10:46:45;102159.75;;;10.33;100.00
42105;BME280;61464;51.472;5.712;2023-02-19T10:49:36;102179.81;;;10.31;100.00
42105;BME280;61464;51.472;5.712;2023-02-19T10:52:30;102179.94;;;10.18;100.00
42105;BME280;61464;51.472;5.712;2023-02-19T10:55:30;102179.50;;;10.13;100.00
42105;BME280;61464;51.472;5.712;2023-02-19T10:57:57;102181.59;;;10.19;100.00
42105;BME280;61464;51.472;5.712;2023-02-19T11:00:45;102181.47;;;10.21;100.00
42105;BME280;61464;51.472;5.712;2023-02-19T11:03:34;102186.78;;;10.42;100.00
42105;BME280;61464;51.472;5.712;2023-02-19T11:06:11;102177.94;;;10.22;100.00
42105;BME280;61464;51.472;5.712;2023-02-19T11:12:05;102174.78;;;9.96;100.00
42105;BME280;61464;51.472;5.712;2023-02-19T11:14:33;102181.03;;;9.93;100.00
42105;BME280;61464;51.472;5.712;2023-02-19T11:17:03;102182.78;;;10.04;100.00
42105;BME280;61464;51.472;5.712;2023-02-19T11:19:44;102177.72;;;10.14;100.00
42105;BME280;61464;51.472;5.712;2023-02-19T11:24:54;102173.72;;;9.98;100.00
42105;BME280;61464;51.472;5.712;2023-02-19T11:27:23;102171.97;;;9.99;100.00
42105;BME280;61464;51.472;5.712;2023-02-19T11:29:50;102167.47;;;10.01;100.00
42105;BME280;61464;51.472;5.712;2023-02-19T11:32:26;102165.44;;;10.04;100.00
42105;BME280;61464;51.472;5.712;2023-02-19T11:35:30;102167.13;;;9.94;100.00
42105;BME280;61464;51.472;5.712;2023-02-19T11:38:09;102165.00;;;9.88;100.00
42105;BME280;61464;51.472;5.712;2023-02-19T11:44:29;102169.44;;;10.20;100.00
42105;BME280;61464;51.472;5.712;2023-02-19T11:53:23;102161.53;;;10.44;100.00
42105;BME280;61464;51.472;5.712;2023-02-19T11:56:10;102159.94;;;10.53;100.00
42105;BME280;61464;51.472;5.712;2023-02-19T12:08:36;102167.47;;;10.88;100.00
42105;BME280;61464;51.472;5.712;2023-02-19T12:14:02;102158.69;;;10.68;100.00
42105;BME280;61464;51.472;5.712;2023-02-19T12:17:05;102167.06;;;10.72;100.00
42105;BME280;61464;51.472;5.712;2023-02-19T12:26:13;102163.06;;;10.35;100.00
42105;BME280;61464;51.472;5.712;2023-02-19T12:31:23;102163.88;;;10.24;100.00
42105;BME280;61464;51.472;5.712;2023-02-19T12:40:09;102158.94;;;10.33;100.00
42105;BME280;61464;51.472;5.712;2023-02-19T12:51:28;102165.94;;;10.64;100.00
42105;BME280;61464;51.472;5.712;2023-02-19T12:57:12;102163.47;;;10.84;100.00
42105;BME280;61464;51.472;5.712;2023-02-19T12:59:59;102174.31;;;10.89;100.00
42105;BME280;61464;51.472;5.712;2023-02-19T13:02:45;102167.34;;;10.69;100.00
42105;BME280;61464;51.472;5.712;2023-02-19T13:05:42;102174.75;;;10.73;100.00
42105;BME280;61464;51.472;5.712;2023-02-19T13:14:41;102186.25;;;10.80;100.00
42105;BME280;61464;51.472;5.712;2023-02-19T13:23:15;102188.66;;;10.72;100.00
42105;BME280;61464;51.472;5.712;2023-02-19T13:26:22;102199.72;;;10.53;100.00
42105;BME280;61464;51.472;5.712;2023-02-19T13:37:43;102209.78;;;10.13;100.00
42105;BME280;61464;51.472;5.712;2023-02-19T13:40:39;102220.66;;;10.18;100.00
42105;BME280;61464;51.472;5.712;2023-02-19T13:45:59;102224.09;;;10.30;100.00
42105;BME280;61464;51.472;5.712;2023-02-19T13:48:32;102230.22;;;10.17;100.00
42105;BME280;61464;51.472;5.712;2023-02-19T13:54:13;102227.38;;;10.09;100.00
42105;BME280;61464;51.472;5.712;2023-02-19T13:56:44;102224.41;;;10.02;100.00
42105;BME280;61464;51.472;5.712;2023-02-19T14:04:46;102247.53;;;10.17;100.00
42105;BME280;61464;51.472;5.712;2023-02-19T14:14:52;102244.69;;;9.86;100.00
42105;BME280;61464;51.472;5.712;2023-02-19T14:20:42;102254.31;;;9.50;100.00
42105;BME280;61464;51.472;5.712;2023-02-19T14:23:27;102273.03;;;9.42;100.00
42105;BME280;61464;51.472;5.712;2023-02-19T14:25:58;102276.59;;;9.41;100.00
42105;BME280;61464;51.472;5.712;2023-02-19T14:28:29;102273.91;;;9.19;100.00
42105;BME280;61464;51.472;5.712;2023-02-19T14:31:37;102287.78;;;9.18;100.00
42105;BME280;61464;51.472;5.712;2023-02-19T14:34:17;102275.28;;;9.12;100.00
42105;BME280;61464;51.472;5.712;2023-02-19T14:36:56;102274.69;;;9.08;100.00
42105;BME280;61464;51.472;5.712;2023-02-19T14:39:34;102291.22;;;8.94;100.00
42105;BME280;61464;51.472;5.712;2023-02-19T14:42:15;102285.06;;;8.84;100.00
42105;BME280;61464;51.472;5.712;2023-02-19T14:44:58;102289.72;;;8.79;100.00
42105;BME280;61464;51.472;5.712;2023-02-19T14:47:29;102275.16;;;8.65;100.00
42105;BME280;61464;51.472;5.712;2023-02-19T14:50:07;102271.25;;;8.59;100.00
42105;BME280;61464;51.472;5.712;2023-02-19T14:52:48;102278.78;;;8.62;100.00
42105;BME280;61464;51.472;5.712;2023-02-19T14:55:34;102276.44;;;8.59;100.00
42105;BME280;61464;51.472;5.712;2023-02-19T14:58:14;102267.09;;;8.57;100.00
42105;BME280;61464;51.472;5.712;2023-02-19T15:00:44;102271.69;;;8.53;100.00
42105;BME280;61464;51.472;5.712;2023-02-19T15:03:27;102262.59;;;8.48;100.00
42105;BME280;61464;51.472;5.712;2023-02-19T15:06:20;102257.91;;;8.40;100.00
42105;BME280;61464;51.472;5.712;2023-02-19T15:09:02;102261.97;;;8.44;100.00
42105;BME280;61464;51.472;5.712;2023-02-19T15:11:29;102252.03;;;8.38;100.00
42105;BME280;61464;51.472;5.712;2023-02-19T15:14:06;102248.72;;;8.36;100.00
42105;BME280;61464;51.472;5.712;2023-02-19T15:16:34;102252.25;;;8.48;100.00
42105;BME280;61464;51.472;5.712;2023-02-19T15:19:05;102236.19;;;8.55;100.00
42105;BME280;61464;51.472;5.712;2023-02-19T15:21:42;102227.81;;;8.52;100.00
42105;BME280;61464;51.472;5.712;2023-02-19T15:24:11;102223.88;;;8.46;100.00
42105;BME280;61464;51.472;5.712;2023-02-19T15:26:42;102220.97;;;8.38;100.00
42105;BME280;61464;51.472;5.712;2023-02-19T15:29:15;102222.75;;;8.37;100.00
42105;BME280;61464;51.472;5.712;2023-02-19T15:31:56;102230.84;;;8.33;100.00
42105;BME280;61464;51.472;5.712;2023-02-19T15:34:28;102224.94;;;8.31;100.00